createdAt,value
2022-12-20T00:00:11.168Z,100.00
2022-12-20T00:02:39.714Z,100.00
2022-12-20T00:05:08.723Z,100.00
2022-12-20T00:07:37.040Z,100.00
2022-12-20T00:10:08.354Z,100.00
2022-12-20T00:12:37.004Z,100.00
2022-12-20T00:15:05.946Z,100.00
2022-12-20T00:17:34.269Z,100.00
2022-12-20T00:20:02.543Z,100.00
2022-12-20T00:22:30.926Z,100.00
2022-12-20T00:24:59.230Z,100.00
2022-12-20T00:27:29.937Z,100.00
2022-12-20T00:29:58.266Z,100.00
2022-12-20T00:32:26.591Z,100.00
2022-12-20T00:34:54.936Z,100.00
2022-12-20T00:37:23.279Z,100.00
2022-12-20T00:39:51.582Z,100.00
2022-12-20T00:42:20.177Z,100.00
2022-12-20T00:44:49.943Z,100.00
2022-12-20T00:47:18.292Z,100.00
2022-12-20T00:49:46.795Z,100.00
2022-12-20T00:52:15.270Z,100.00
2022-12-20T00:54:43.864Z,100.00
2022-12-20T00:57:12.321Z,100.00
2022-12-20T00:59:40.597Z,100.00
2022-12-20T01:02:10.597Z,100.00
2022-12-20T01:04:39.150Z,100.00
2022-12-20T01:07:07.932Z,100.00
2022-12-20T01:09:36.290Z,100.00
2022-12-20T01:12:05.307Z,100.00
2022-12-20T01:14:33.721Z,100.00
2022-12-20T01:17:02.116Z,100.00
2022-12-20T01:19:32.220Z,100.00
2022-12-20T01:22:00.516Z,100.00
2022-12-20T01:24:28.770Z,100.00
2022-12-20T01:26:57.148Z,100.00
2022-12-20T01:29:25.461Z,100.00
2022-12-20T01:31:54.979Z,100.00
2022-12-20T01:34:23.637Z,100.00
2022-12-20T01:36:53.335Z,100.00
2022-12-20T01:39:21.681Z,100.00
2022-12-20T01:41:50.235Z,100.00
2022-12-20T01:44:54.691Z,100.00
2022-12-20T01:47:23.295Z,100.00
2022-12-20T01:49:52.147Z,100.00
2022-12-20T01:52:23.108Z,100.00
2022-12-20T01:54:52.819Z,100.00
2022-12-20T01:57:23.938Z,100.00
2022-12-20T01:59:52.239Z,100.00
2022-12-20T02:02:22.946Z,100.00
2022-12-20T02:04:51.402Z,100.00
2022-12-20T02:07:22.960Z,100.00
2022-12-20T02:09:51.303Z,100.00
2022-12-20T02:12:21.566Z,100.00
2022-12-20T02:14:58.947Z,100.00
2022-12-20T02:17:31.935Z,100.00
2022-12-20T02:20:22.163Z,100.00
2022-12-20T02:23:04.236Z,100.00
2022-12-20T02:25:48.144Z,100.00
2022-12-20T02:28:25.726Z,100.00
2022-12-20T02:30:55.685Z,100.00
2022-12-20T02:33:24.457Z,100.00
2022-12-20T02:35:52.926Z,100.00
2022-12-20T02:38:29.796Z,100.00
2022-12-20T02:41:00.549Z,100.00
2022-12-20T02:43:46.283Z,100.00
2022-12-20T02:46:16.126Z,100.00
2022-12-20T02:48:44.521Z,100.00
2022-12-20T02:51:12.832Z,100.00
2022-12-20T02:53:42.980Z,100.00
2022-12-20T02:56:15.976Z,100.00
2022-12-20T02:58:47.294Z,100.00
2022-12-20T03:01:19.170Z,100.00
2022-12-20T03:03:47.805Z,100.00
2022-12-20T03:06:16.442Z,100.00
2022-12-20T03:08:44.922Z,100.00
2022-12-20T03:11:13.407Z,100.00
2022-12-20T03:13:41.764Z,100.00
2022-12-20T03:16:11.935Z,100.00
2022-12-20T03:18:41.875Z,100.00
2022-12-20T03:21:10.484Z,100.00
2022-12-20T03:23:38.899Z,100.00
2022-12-20T03:26:08.140Z,100.00
2022-12-20T03:28:41.856Z,100.00
2022-12-20T03:31:12.936Z,100.00
2022-12-20T03:33:49.058Z,100.00
2022-12-20T03:36:23.563Z,100.00
2022-12-20T03:38:56.393Z,100.00
2022-12-20T03:41:27.592Z,100.00
2022-12-20T03:43:55.890Z,100.00
2022-12-20T03:46:25.019Z,100.00
2022-12-20T03:48:56.734Z,100.00
2022-12-20T03:51:25.563Z,100.00
2022-12-20T03:53:53.914Z,100.00
2022-12-20T03:56:25.147Z,100.00
2022-12-20T03:58:53.519Z,100.00
2022-12-20T04:01:23.009Z,100.00
2022-12-20T04:03:52.681Z,100.00
2022-12-20T04:06:22.788Z,100.00
2022-12-20T04:08:52.287Z,100.00
2022-12-20T04:11:27.947Z,100.00
2022-12-20T04:14:13.441Z,100.00
2022-12-20T04:16:41.968Z,100.00
2022-12-20T04:19:12.103Z,100.00
2022-12-20T04:21:48.114Z,100.00
2022-12-20T04:24:18.023Z,100.00
2022-12-20T04:27:01.760Z,100.00
2022-12-20T04:29:30.883Z,100.00
2022-12-20T04:32:00.349Z,100.00
2022-12-20T04:34:29.596Z,100.00
2022-12-20T04:37:00.223Z,100.00
2022-12-20T04:39:48.803Z,100.00
2022-12-20T04:42:22.691Z,100.00
2022-12-20T04:44:52.668Z,100.00
2022-12-20T04:47:25.730Z,100.00
2022-12-20T04:49:55.478Z,100.00
2022-12-20T04:52:47.448Z,100.00
2022-12-20T04:55:16.759Z,100.00
2022-12-20T04:57:45.435Z,100.00
2022-12-20T05:00:15.940Z,100.00
2022-12-20T05:02:48.174Z,100.00
2022-12-20T05:05:20.366Z,100.00
2022-12-20T05:07:54.187Z,100.00
2022-12-20T05:10:22.829Z,100.00
2022-12-20T05:12:52.654Z,100.00
2022-12-20T05:15:32.331Z,100.00
2022-12-20T05:18:01.244Z,100.00
2022-12-20T05:20:39.564Z,100.00
2022-12-20T05:23:42.783Z,100.00
2022-12-20T05:26:18.886Z,100.00
2022-12-20T05:28:49.517Z,100.00
2022-12-20T05:31:18.096Z,100.00
2022-12-20T05:33:46.454Z,100.00
2022-12-20T05:36:14.923Z,100.00
2022-12-20T05:38:45.805Z,100.00
2022-12-20T05:41:17.890Z,100.00
2022-12-20T05:43:50.168Z,100.00
2022-12-20T05:46:18.906Z,100.00
2022-12-20T05:48:55.631Z,100.00
2022-12-20T05:51:24.692Z,100.00
2022-12-20T05:54:02.563Z,100.00
2022-12-20T05:56:43.326Z,100.00
2022-12-20T05:59:11.733Z,100.00
2022-12-20T06:01:41.721Z,100.00
2022-12-20T06:04:10.148Z,100.00
2022-12-20T06:06:38.888Z,100.00
2022-12-20T06:09:08.617Z,100.00
2022-12-20T06:11:41.476Z,100.00
2022-12-20T06:14:13.137Z,100.00
2022-12-20T06:16:46.890Z,100.00
2022-12-20T06:19:21.693Z,100.00
2022-12-20T06:21:53.090Z,100.00
2022-12-20T06:24:29.872Z,100.00
2022-12-20T06:26:58.398Z,100.00
2022-12-20T06:29:28.062Z,100.00
2022-12-20T06:32:05.381Z,100.00
2022-12-20T06:34:34.195Z,100.00
2022-12-20T06:37:03.482Z,100.00
2022-12-20T06:39:36.486Z,100.00
2022-12-20T06:42:07.058Z,100.00
2022-12-20T06:44:37.014Z,100.00
2022-12-20T06:47:06.684Z,100.00
2022-12-20T06:49:35.021Z,100.00
2022-12-20T06:52:08.724Z,100.00
2022-12-20T06:54:46.502Z,100.00
2022-12-20T06:57:14.995Z,100.00
2022-12-20T06:59:46.082Z,100.00
2022-12-20T07:02:14.590Z,100.00
2022-12-20T07:04:43.161Z,100.00
2022-12-20T07:07:12.735Z,100.00
2022-12-20T07:09:42.831Z,100.00
2022-12-20T07:12:12.975Z,100.00
2022-12-20T07:14:41.259Z,100.00
2022-12-20T07:17:09.654Z,100.00
2022-12-20T07:19:37.965Z,100.00
2022-12-20T07:22:06.689Z,100.00
2022-12-20T07:24:35.032Z,100.00
2022-12-20T07:27:03.643Z,100.00
2022-12-20T07:29:33.310Z,100.00
2022-12-20T07:32:01.712Z,100.00
2022-12-20T07:34:29.993Z,100.00
2022-12-20T07:36:58.991Z,100.00
2022-12-20T07:39:27.376Z,100.00
2022-12-20T07:41:58.144Z,100.00
2022-12-20T07:44:26.637Z,100.00
2022-12-20T07:46:56.352Z,100.00
2022-12-20T07:49:24.647Z,100.00
2022-12-20T07:51:54.161Z,100.00
2022-12-20T07:54:25.197Z,100.00
2022-12-20T07:56:54.758Z,100.00
2022-12-20T07:59:24.602Z,100.00
2022-12-20T08:01:53.166Z,100.00
2022-12-20T08:04:27.297Z,100.00
2022-12-20T08:06:56.436Z,100.00
2022-12-20T08:09:25.058Z,100.00
2022-12-20T08:11:53.380Z,100.00
2022-12-20T08:14:21.862Z,100.00
2022-12-20T08:16:50.919Z,100.00
2022-12-20T08:19:19.252Z,100.00
2022-12-20T08:21:49.317Z,100.00
2022-12-20T08:24:17.604Z,100.00
2022-12-20T08:26:45.962Z,100.00
2022-12-20T08:29:14.298Z,100.00
2022-12-20T08:31:49.442Z,100.00
2022-12-20T08:34:20.162Z,100.00
2022-12-20T08:36:49.891Z,100.00
2022-12-20T08:39:18.263Z,100.00
2022-12-20T08:41:46.562Z,100.00
2022-12-20T08:44:14.849Z,100.00
2022-12-20T08:46:43.271Z,100.00
2022-12-20T08:49:11.857Z,100.00
2022-12-20T08:51:40.226Z,100.00
2022-12-20T08:54:10.006Z,100.00
2022-12-20T08:56:38.312Z,100.00
2022-12-20T08:59:06.963Z,100.00
2022-12-20T09:01:36.882Z,100.00
2022-12-20T09:04:05.828Z,100.00
2022-12-20T09:06:36.121Z,100.00
2022-12-20T09:09:04.494Z,100.00
2022-12-20T09:11:34.272Z,100.00
2022-12-20T09:14:02.911Z,100.00
2022-12-20T09:16:32.111Z,100.00
2022-12-20T09:19:05.614Z,100.00
2022-12-20T09:21:34.575Z,100.00
2022-12-20T09:24:02.916Z,100.00
2022-12-20T09:26:32.467Z,100.00
2022-12-20T09:29:02.701Z,100.00
2022-12-20T09:31:31.093Z,100.00
2022-12-20T09:33:59.827Z,100.00
2022-12-20T09:36:29.045Z,100.00
2022-12-20T09:38:57.649Z,100.00
2022-12-20T09:41:29.136Z,100.00
2022-12-20T09:43:58.741Z,100.00
2022-12-20T09:46:28.539Z,100.00
2022-12-20T09:48:57.588Z,100.00
2022-12-20T09:51:44.235Z,100.00
2022-12-20T09:54:18.632Z,100.00
2022-12-20T09:56:51.225Z,100.00
2022-12-20T09:59:20.185Z,100.00
2022-12-20T10:01:51.064Z,100.00
2022-12-20T10:04:22.170Z,100.00
2022-12-20T10:06:56.835Z,100.00
2022-12-20T10:09:37.196Z,100.00
2022-12-20T10:12:09.344Z,100.00
2022-12-20T10:14:49.087Z,100.00
2022-12-20T10:17:26.190Z,100.00
2022-12-20T10:20:05.294Z,100.00
2022-12-20T10:22:37.853Z,100.00
2022-12-20T10:25:15.448Z,100.00
2022-12-20T10:27:43.802Z,100.00
2022-12-20T10:30:14.707Z,100.00
2022-12-20T10:32:45.997Z,100.00
2022-12-20T10:35:23.058Z,100.00
2022-12-20T10:38:14.290Z,100.00
2022-12-20T10:41:19.453Z,100.00
2022-12-20T10:43:42.003Z,100.00
2022-12-20T10:46:10.449Z,100.00
2022-12-20T10:48:41.259Z,100.00
2022-12-20T10:51:16.930Z,100.00
2022-12-20T10:53:53.162Z,100.00
2022-12-20T10:56:22.740Z,100.00
2022-12-20T10:58:58.185Z,100.00
2022-12-20T11:01:29.241Z,100.00
2022-12-20T11:04:03.422Z,100.00
2022-12-20T11:06:43.575Z,100.00
2022-12-20T11:09:25.038Z,100.00
2022-12-20T11:11:59.628Z,100.00
2022-12-20T11:14:32.899Z,100.00
2022-12-20T11:17:07.910Z,100.00
2022-12-20T11:19:47.826Z,100.00
2022-12-20T11:22:23.511Z,100.00
2022-12-20T11:24:56.521Z,100.00
2022-12-20T11:27:28.850Z,100.00
2022-12-20T11:30:16.240Z,100.00
2022-12-20T11:32:55.858Z,100.00
2022-12-20T11:35:26.768Z,100.00
2022-12-20T11:38:09.920Z,100.00
2022-12-20T11:40:39.406Z,100.00
2022-12-20T11:43:28.411Z,100.00
2022-12-20T11:46:07.089Z,100.00
2022-12-20T11:48:44.929Z,100.00
2022-12-20T11:51:25.891Z,100.00
2022-12-20T11:53:56.988Z,100.00
2022-12-20T11:56:27.520Z,100.00
2022-12-20T11:58:57.639Z,100.00
2022-12-20T12:01:27.345Z,100.00
2022-12-20T12:04:04.289Z,100.00
2022-12-20T12:06:35.239Z,100.00
2022-12-20T12:09:09.839Z,100.00
2022-12-20T12:12:06.051Z,100.00
2022-12-20T12:14:37.028Z,100.00
2022-12-20T12:17:09.711Z,100.00
2022-12-20T12:19:38.582Z,100.00
2022-12-20T12:22:12.181Z,100.00
2022-12-20T12:24:42.759Z,100.00
2022-12-20T12:27:16.132Z,100.00
2022-12-20T12:29:45.361Z,100.00
2022-12-20T12:32:18.023Z,100.00
2022-12-20T12:34:53.496Z,100.00
2022-12-20T12:37:38.422Z,100.00
2022-12-20T12:40:34.968Z,100.00
2022-12-20T12:43:12.909Z,100.00
2022-12-20T12:45:43.651Z,100.00
2022-12-20T12:48:15.522Z,100.00
2022-12-20T12:50:45.691Z,100.00
2022-12-20T12:53:16.243Z,100.00
2022-12-20T12:55:45.600Z,100.00
2022-12-20T12:58:34.934Z,100.00
2022-12-20T13:01:05.573Z,100.00
2022-12-20T13:03:56.280Z,100.00
2022-12-20T13:07:04.103Z,100.00
2022-12-20T13:09:49.276Z,100.00
2022-12-20T13:13:00.020Z,100.00
2022-12-20T13:15:53.601Z,100.00
2022-12-20T13:18:30.947Z,100.00
2022-12-20T13:21:36.709Z,100.00
2022-12-20T13:24:38.189Z,100.00
2022-12-20T13:27:39.314Z,100.00
2022-12-20T13:30:27.022Z,100.00
2022-12-20T13:33:13.744Z,100.00
2022-12-20T13:36:02.135Z,100.00
2022-12-20T13:38:39.932Z,100.00
2022-12-20T13:41:14.240Z,100.00
2022-12-20T13:43:46.258Z,100.00
2022-12-20T13:46:15.688Z,100.00
2022-12-20T13:48:48.182Z,100.00
2022-12-20T13:51:17.663Z,100.00
2022-12-20T13:53:52.710Z,100.00
2022-12-20T13:56:44.185Z,100.00
2022-12-20T13:59:19.751Z,100.00
2022-12-20T14:01:51.856Z,100.00
2022-12-20T14:04:20.723Z,100.00
2022-12-20T14:06:52.836Z,100.00
2022-12-20T14:09:29.168Z,100.00
2022-12-20T14:12:03.477Z,100.00
2022-12-20T14:14:38.753Z,100.00
2022-12-20T14:17:17.934Z,100.00
2022-12-20T14:19:46.371Z,100.00
2022-12-20T14:22:14.757Z,100.00
2022-12-20T14:24:43.382Z,100.00
2022-12-20T14:27:12.409Z,100.00
2022-12-20T14:29:47.562Z,100.00
2022-12-20T14:32:19.936Z,100.00
2022-12-20T14:34:48.707Z,100.00
2022-12-20T14:37:28.672Z,100.00
2022-12-20T14:40:02.905Z,100.00
2022-12-20T14:42:33.849Z,100.00
2022-12-20T14:45:18.891Z,100.00
2022-12-20T14:47:58.367Z,100.00
2022-12-20T14:50:32.096Z,100.00
2022-12-20T14:53:00.391Z,100.00
2022-12-20T14:55:33.245Z,100.00
2022-12-20T14:58:01.892Z,100.00
2022-12-20T15:00:32.264Z,100.00
2022-12-20T15:03:03.342Z,100.00
2022-12-20T15:05:52.045Z,100.00
2022-12-20T15:08:22.184Z,100.00
2022-12-20T15:10:53.440Z,100.00
2022-12-20T15:13:22.843Z,100.00
2022-12-20T15:15:52.633Z,100.00
2022-12-20T15:18:21.622Z,100.00
2022-12-20T15:20:51.730Z,100.00
2022-12-20T15:23:21.156Z,100.00
2022-12-20T15:25:49.948Z,100.00
2022-12-20T15:28:19.449Z,100.00
2022-12-20T15:30:47.881Z,100.00
2022-12-20T15:33:22.503Z,100.00
2022-12-20T15:35:51.506Z,100.00
2022-12-20T15:38:34.794Z,100.00
2022-12-20T15:41:12.887Z,100.00
2022-12-20T15:43:41.152Z,100.00
2022-12-20T15:46:10.022Z,100.00
2022-12-20T15:48:39.758Z,100.00
2022-12-20T15:51:15.925Z,100.00
2022-12-20T15:53:44.287Z,100.00
2022-12-20T15:56:19.831Z,100.00
2022-12-20T15:58:48.715Z,100.00
2022-12-20T16:01:19.493Z,100.00
2022-12-20T16:03:49.235Z,100.00
2022-12-20T16:06:17.495Z,100.00
2022-12-20T16:08:45.809Z,100.00
2022-12-20T16:11:23.341Z,100.00
2022-12-20T16:13:51.771Z,100.00
2022-12-20T16:16:20.467Z,100.00
2022-12-20T16:18:50.268Z,100.00
2022-12-20T16:21:18.843Z,100.00
2022-12-20T16:23:47.140Z,100.00
2022-12-20T16:26:17.306Z,100.00
2022-12-20T16:28:45.660Z,100.00
2022-12-20T16:31:19.823Z,100.00
2022-12-20T16:33:49.628Z,100.00
2022-12-20T16:36:18.011Z,100.00
2022-12-20T16:38:50.343Z,100.00
2022-12-20T16:41:19.279Z,100.00
2022-12-20T16:43:47.856Z,100.00
2022-12-20T16:46:16.964Z,100.00
2022-12-20T16:48:45.373Z,100.00
2022-12-20T16:51:23.942Z,100.00
2022-12-20T16:54:18.087Z,100.00
2022-12-20T16:56:40.915Z,100.00
2022-12-20T16:59:19.370Z,100.00
2022-12-20T17:01:49.674Z,100.00
2022-12-20T17:04:18.900Z,100.00
2022-12-20T17:06:49.937Z,100.00
2022-12-20T17:12:04.683Z,100.00
2022-12-20T17:14:32.916Z,100.00
2022-12-20T17:17:03.940Z,100.00
2022-12-20T17:19:33.003Z,100.00
2022-12-20T17:24:48.526Z,100.00
2022-12-20T17:27:16.848Z,100.00
2022-12-20T17:29:45.172Z,100.00
2022-12-20T17:32:20.180Z,100.00
2022-12-20T17:34:48.532Z,100.00
2022-12-20T17:37:18.410Z,100.00
2022-12-20T17:39:46.812Z,100.00
2022-12-20T17:42:15.456Z,100.00
2022-12-20T17:44:43.790Z,100.00
2022-12-20T17:47:12.634Z,100.00
2022-12-20T17:49:40.918Z,100.00
2022-12-20T17:52:13.096Z,100.00
2022-12-20T17:54:42.816Z,100.00
2022-12-20T17:57:14.451Z,100.00
2022-12-20T17:59:43.652Z,100.00
2022-12-20T18:02:20.313Z,100.00
2022-12-20T18:04:48.963Z,100.00
2022-12-20T18:07:17.292Z,100.00
2022-12-20T18:09:49.119Z,100.00
2022-12-20T18:12:17.783Z,100.00
2022-12-20T18:14:46.171Z,100.00
2022-12-20T18:17:14.580Z,100.00
2022-12-20T18:19:43.966Z,100.00
2022-12-20T18:22:12.380Z,100.00
2022-12-20T18:24:40.661Z,100.00
2022-12-20T18:27:10.717Z,100.00
2022-12-20T18:29:38.991Z,100.00
2022-12-20T18:32:07.506Z,100.00
2022-12-20T18:34:35.996Z,100.00
2022-12-20T18:37:05.751Z,100.00
2022-12-20T18:39:35.534Z,100.00
2022-12-20T18:42:03.876Z,100.00
2022-12-20T18:44:36.018Z,100.00
2022-12-20T18:47:04.603Z,100.00
2022-12-20T18:49:33.256Z,100.00
2022-12-20T18:52:01.586Z,100.00
2022-12-20T18:54:31.058Z,100.00
2022-12-20T18:57:00.888Z,100.00
2022-12-20T18:59:29.435Z,100.00
2022-12-20T19:01:59.657Z,100.00
2022-12-20T19:04:28.125Z,100.00
2022-12-20T19:06:56.491Z,100.00
2022-12-20T19:09:24.982Z,100.00
2022-12-20T19:11:57.000Z,100.00
2022-12-20T19:14:25.929Z,100.00
2022-12-20T19:16:54.296Z,100.00
2022-12-20T19:19:24.116Z,100.00
2022-12-20T19:21:52.683Z,100.00
2022-12-20T19:24:21.436Z,100.00
2022-12-20T19:26:49.801Z,100.00
2022-12-20T19:29:18.122Z,100.00
2022-12-20T19:31:47.815Z,100.00
2022-12-20T19:34:16.386Z,100.00
2022-12-20T19:36:48.585Z,100.00
2022-12-20T19:39:17.799Z,100.00
2022-12-20T19:42:00.224Z,100.00
2022-12-20T19:44:34.551Z,100.00
2022-12-20T19:47:05.917Z,100.00
2022-12-20T19:49:35.614Z,100.00
2022-12-20T19:52:05.962Z,100.00
2022-12-20T19:54:35.220Z,100.00
2022-12-20T19:57:03.499Z,100.00
2022-12-20T19:59:31.851Z,100.00
2022-12-20T20:02:00.356Z,100.00
2022-12-20T20:04:29.138Z,100.00
2022-12-20T20:06:57.641Z,100.00
2022-12-20T20:09:27.427Z,100.00
2022-12-20T20:11:55.712Z,100.00
2022-12-20T20:14:24.056Z,100.00
2022-12-20T20:16:52.999Z,100.00
2022-12-20T20:19:21.768Z,100.00
2022-12-20T20:21:50.481Z,100.00
2022-12-20T20:24:18.924Z,100.00
2022-12-20T20:26:48.818Z,100.00
2022-12-20T20:29:17.082Z,100.00
2022-12-20T20:31:45.784Z,100.00
2022-12-20T20:34:14.095Z,100.00
2022-12-20T20:36:42.472Z,100.00
2022-12-20T20:39:10.829Z,100.00
2022-12-20T20:41:39.147Z,100.00
2022-12-20T20:44:09.194Z,100.00
2022-12-20T20:46:37.556Z,100.00
2022-12-20T20:49:05.963Z,100.00
2022-12-20T20:51:34.800Z,100.00
2022-12-20T20:54:03.481Z,100.00
2022-12-20T20:56:31.956Z,100.00
2022-12-20T20:59:05.937Z,100.00
2022-12-20T21:01:38.083Z,100.00
2022-12-20T21:04:07.046Z,100.00
2022-12-20T21:06:41.166Z,100.00
2022-12-20T21:09:10.258Z,100.00
2022-12-20T21:11:38.958Z,100.00
2022-12-20T21:14:07.354Z,100.00
2022-12-20T21:16:37.265Z,100.00
2022-12-20T21:19:05.814Z,100.00
2022-12-20T21:21:34.181Z,100.00
2022-12-20T21:24:03.945Z,100.00
2022-12-20T21:26:32.285Z,100.00
2022-12-20T21:29:01.109Z,100.00
2022-12-20T21:31:29.651Z,100.00
2022-12-20T21:33:59.981Z,100.00
2022-12-20T21:36:28.368Z,100.00
2022-12-20T21:38:57.835Z,100.00
2022-12-20T21:41:26.981Z,100.00
2022-12-20T21:43:56.366Z,100.00
2022-12-20T21:46:24.843Z,100.00
2022-12-20T21:48:53.205Z,100.00
2022-12-20T21:51:23.447Z,100.00
2022-12-20T21:53:52.510Z,100.00
2022-12-20T21:56:21.122Z,100.00
2022-12-20T21:58:49.502Z,100.00
2022-12-20T22:01:18.630Z,100.00
2022-12-20T22:03:47.038Z,100.00
2022-12-20T22:06:15.558Z,100.00
2022-12-20T22:08:45.354Z,100.00
2022-12-20T22:11:14.621Z,100.00
2022-12-20T22:13:43.000Z,100.00
2022-12-20T22:16:12.158Z,100.00
2022-12-20T22:18:40.539Z,100.00
2022-12-20T22:21:11.040Z,100.00
2022-12-20T22:23:39.421Z,100.00
2022-12-20T22:26:10.598Z,100.00
2022-12-20T22:28:39.054Z,100.00
2022-12-20T22:31:09.185Z,100.00
2022-12-20T22:33:37.667Z,100.00
2022-12-20T22:36:06.896Z,100.00
2022-12-20T22:38:35.378Z,99.70
2022-12-20T22:41:11.977Z,98.86
2022-12-20T22:43:41.081Z,98.46
2022-12-20T22:46:10.616Z,97.60
2022-12-20T22:48:39.383Z,96.68
2022-12-20T22:51:09.386Z,96.05
2022-12-20T22:53:37.753Z,96.32
2022-12-20T22:56:06.690Z,96.13
2022-12-20T22:58:36.622Z,96.31
2022-12-20T23:01:06.247Z,96.31
2022-12-20T23:03:34.757Z,95.16
2022-12-20T23:06:03.944Z,95.43
2022-12-20T23:08:33.452Z,95.81
2022-12-20T23:11:19.273Z,96.33
2022-12-20T23:14:06.681Z,96.78
2022-12-20T23:16:35.011Z,96.24
2022-12-20T23:19:03.370Z,95.85
2022-12-20T23:21:49.392Z,95.69
2022-12-20T23:24:17.749Z,95.29
2022-12-20T23:26:46.072Z,95.05
2022-12-20T23:29:16.133Z,95.55
2022-12-20T23:31:44.585Z,95.30
2022-12-20T23:34:12.929Z,95.15
2022-12-20T23:36:41.317Z,95.29
2022-12-20T23:39:09.639Z,95.49
2022-12-20T23:41:37.958Z,95.28
2022-12-20T23:44:06.937Z,94.99
2022-12-20T23:46:36.598Z,94.61
2022-12-20T23:49:04.927Z,93.84
2022-12-20T23:51:34.703Z,94.42
2022-12-20T23:54:03.054Z,94.68
2022-12-20T23:56:31.652Z,94.39
2022-12-20T23:58:59.963Z,94.93
